Time;durP1;ratioP1;P1;durP2;ratioP2;P2;SDS_P1;SDS_P2;PMS_P1;PMS_P2;Temp;Humidity;BMP_temperature;BMP_pressure;BME280_temperature;BME280_humidity;BME280_pressure;Samples;Min_cycle;Max_cycle;Signal;HPM_P1;HPM_P2
2022/03/12 00:02:00;;;;;;;;;;;;;;;27.48;56.57;98030.45;619035;229;68397;-68
2022/03/12 00:04:29;;;;;;;;;;;;;;;27.46;56.96;98030.72;619099;229;68633;-68
2022/03/12 00:06:58;;;;;;;;;;;;;;;27.45;57.21;98031.83;619005;229;62921;-68
2022/03/12 00:09:26;;;;;;;;;;;;;;;27.45;56.52;98031.83;619012;229;68741;-68
2022/03/12 00:11:58;;;;;;;;;;;;;;;27.44;57.81;98035.59;619030;229;68470;-68
2022/03/12 00:14:24;;;;;;;;;;;;;;;27.44;57.36;98041.00;618916;229;65044;-67
2022/03/12 00:16:54;;;;;;;;;;;;;;;27.41;57.39;98042.37;619042;229;47309;-67
2022/03/12 00:19:22;;;;;;;;;;;;;;;27.40;57.76;98040.78;619012;229;67073;-67
2022/03/12 00:21:50;;;;;;;;;;;;;;;27.39;55.44;98039.18;618987;229;63110;-67
2022/03/12 00:24:18;;;;;;;;;;;;;;;27.38;56.09;98044.86;619033;229;68840;-67
2022/03/12 00:26:46;;;;;;;;;;;;;;;27.37;54.57;98046.76;618991;229;66634;-67
2022/03/12 00:29:20;;;;;;;;;;;;;;;27.37;56.94;98045.95;619059;229;66266;-67
2022/03/12 00:31:46;;;;;;;;;;;;;;;27.35;56.88;98042.73;618961;229;66618;-67
2022/03/12 00:34:15;;;;;;;;;;;;;;;27.35;56.44;98048.13;618995;229;66605;-68
2022/03/12 00:36:42;;;;;;;;;;;;;;;27.33;56.18;98037.61;615746;230;63257;-68
2022/03/12 00:39:11;;;;;;;;;;;;;;;27.33;55.95;98043.01;615750;230;66587;-68
2022/03/12 00:41:42;;;;;;;;;;;;;;;27.32;56.21;98035.22;615822;230;45017;-68
2022/03/12 00:44:12;;;;;;;;;;;;;;;27.31;57.63;98026.32;615797;230;66043;-69
2022/03/12 00:46:39;;;;;;;;;;;;;;;27.29;58.29;98027.70;618983;229;68741;-69
2022/03/12 00:49:07;;;;;;;;;;;;;;;27.27;56.69;98024.48;619032;229;66401;-69
2022/03/12 00:51:38;;;;;;;;;;;;;;;27.27;57.49;98025.27;619034;229;65074;-69
2022/03/12 00:54:04;;;;;;;;;;;;;;;27.26;58.65;98022.88;618962;229;66694;-68
2022/03/12 00:56:31;;;;;;;;;;;;;;;27.25;58.28;98022.05;619019;226;66980;-68
2022/03/12 00:58:59;;;;;;;;;;;;;;;27.25;58.63;98029.35;619038;229;63193;-69
2022/03/12 01:01:27;;;;;;;;;;;;;;;27.21;57.70;98027.23;619028;229;68911;-69
2022/03/12 01:03:54;;;;;;;;;;;;;;;27.21;58.49;98024.53;619040;229;68655;-69
2022/03/12 01:06:22;;;;;;;;;;;;;;;27.21;56.43;98026.44;619036;229;65387;-69
2022/03/12 01:08:49;;;;;;;;;;;;;;;27.20;57.00;98031.03;619088;229;68908;-69
2022/03/12 01:11:17;;;;;;;;;;;;;;;27.20;57.78;98024.80;619048;229;68629;-68
2022/03/12 01:13:44;;;;;;;;;;;;;;;27.17;57.48;98022.69;619068;229;63238;-68
2022/03/12 01:16:12;;;;;;;;;;;;;;;27.16;57.18;98016.49;618990;229;66378;-69
2022/03/12 01:18:40;;;;;;;;;;;;;;;27.15;57.46;98016.77;619053;229;68911;-69
2022/03/12 01:21:10;;;;;;;;;;;;;;;27.16;57.44;98023.76;618993;229;65690;-69
2022/03/12 01:23:38;;;;;;;;;;;;;;;27.14;57.70;98021.33;615266;230;66884;-69
2022/03/12 01:26:06;;;;;;;;;;;;;;;27.12;59.13;98026.23;615768;230;68667;-69
2022/03/12 01:28:33;;;;;;;;;;;;;;;27.11;57.70;98013.81;615761;230;65542;-69
2022/03/12 01:31:01;;;;;;;;;;;;;;;27.09;56.53;98023.28;615794;230;66627;-68
2022/03/12 01:33:29;;;;;;;;;;;;;;;27.10;57.32;98020.31;615778;230;68506;-69
2022/03/12 01:35:57;;;;;;;;;;;;;;;27.08;57.30;98021.69;615814;230;65472;-69
2022/03/12 01:38:32;;;;;;;;;;;;;;;27.05;55.71;98019.56;615793;230;68841;-69
2022/03/12 01:41:04;;;;;;;;;;;;;;;27.04;56.91;98020.64;618056;229;66419;-68
2022/03/12 01:43:32;;;;;;;;;;;;;;;27.04;57.70;98018.77;619015;229;65264;-68
2022/03/12 01:46:01;;;;;;;;;;;;;;;27.02;57.04;98018.25;619028;229;68766;-68
2022/03/12 01:48:30;;;;;;;;;;;;;;;27.01;56.96;98022.05;619009;229;68717;-68
2022/03/12 01:50:57;;;;;;;;;;;;;;;27.00;58.83;98020.41;618979;229;63162;-68
2022/03/12 01:53:26;;;;;;;;;;;;;;;26.99;56.96;98019.62;619037;229;66650;-68
2022/03/12 01:55:55;;;;;;;;;;;;;;;26.98;58.29;98012.63;618954;227;68656;-68
2022/03/12 01:58:24;;;;;;;;;;;;;;;26.97;57.50;98019.09;619035;229;63331;-68
2022/03/12 02:00:53;;;;;;;;;;;;;;;26.97;57.17;98027.19;619066;229;68767;-68
2022/03/12 02:03:28;;;;;;;;;;;;;;;26.95;59.12;98031.25;619046;229;68442;-68
2022/03/12 02:05:50;;;;;;;;;;;;;;;26.95;57.09;98017.77;618702;229;63327;-68
2022/03/12 02:08:18;;;;;;;;;;;;;;;26.92;57.87;98019.14;619017;229;68667;-68
2022/03/12 02:10:48;;;;;;;;;;;;;;;26.93;56.74;98019.97;619018;229;68888;-68
2022/03/12 02:13:16;;;;;;;;;;;;;;;26.91;57.66;98028.33;619069;229;62996;-68
2022/03/12 02:15:44;;;;;;;;;;;;;;;26.90;57.72;98020.52;619044;229;68760;-68
2022/03/12 02:18:14;;;;;;;;;;;;;;;26.88;57.15;98026.21;619005;229;68639;-68
2022/03/12 02:20:44;;;;;;;;;;;;;;;26.88;57.98;98033.50;618999;229;63185;-68
2022/03/12 02:23:11;;;;;;;;;;;;;;;26.88;58.21;98028.91;619051;229;66718;-68
2022/03/12 02:25:39;;;;;;;;;;;;;;;26.86;58.49;98030.28;619055;229;68826;-68
2022/03/12 02:28:17;;;;;;;;;;;;;;;26.85;58.87;98032.18;619114;229;65367;-68
2022/03/12 02:30:51;;;;;;;;;;;;;;;26.83;58.91;98025.45;615584;230;68520;-66
2022/03/12 02:33:27;;;;;;;;;;;;;;;26.82;58.16;98024.66;615675;230;71007;-67
2022/03/12 02:35:48;;;;;;;;;;;;;;;26.79;58.45;98028.73;615403;230;65227;-67
2022/03/12 02:38:21;;;;;;;;;;;;;;;26.80;58.60;98040.31;615751;230;68905;-66
2022/03/12 02:40:47;;;;;;;;;;;;;;;26.79;59.26;98047.61;618854;229;68655;-66
2022/03/12 02:43:14;;;;;;;;;;;;;;;26.78;59.13;98043.28;619019;229;65304;-67
2022/03/12 02:45:41;;;;;;;;;;;;;;;26.74;58.18;98047.66;618997;229;68707;-67
2022/03/12 02:48:10;;;;;;;;;;;;;;;26.74;58.81;98044.95;619023;229;68644;-67
2022/03/12 02:50:37;;;;;;;;;;;;;;;26.75;56.00;98045.75;619023;229;65299;-67
2022/03/12 02:53:05;;;;;;;;;;;;;;;26.74;59.22;98044.16;619023;229;66379;-66
2022/03/12 02:55:38;;;;;;;;;;;;;;;26.74;59.03;98044.16;619070;229;66489;-66
2022/03/12 02:58:09;;;;;;;;;;;;;;;26.71;57.90;98042.83;618766;227;63020;-66
2022/03/12 03:00:31;;;;;;;;;;;;;;;26.69;58.86;98052.28;618629;229;66582;-67
2022/03/12 03:03:01;;;;;;;;;;;;;;;26.68;57.43;98046.09;618996;229;66696;-66
2022/03/12 03:08:04;;;;;;;;;;;;;;;26.66;59.97;98048.27;619066;229;68757;-67
2022/03/12 03:10:37;;;;;;;;;;;;;;;26.62;60.49;98055.30;615599;230;68716;-67
2022/03/12 03:13:04;;;;;;;;;;;;;;;26.63;59.64;98059.62;615415;230;65307;-67
2022/03/12 03:15:32;;;;;;;;;;;;;;;26.61;59.69;98055.59;618043;229;66706;-66
2022/03/12 03:18:03;;;;;;;;;;;;;;;26.60;59.25;98052.09;619027;229;68338;-67
2022/03/12 03:20:29;;;;;;;;;;;;;;;26.59;60.15;98053.17;618921;229;63152;-66
2022/03/12 03:22:57;;;;;;;;;;;;;;;26.56;60.96;98053.73;619066;229;68528;-67
2022/03/12 03:25:24;;;;;;;;;;;;;;;26.55;60.74;98060.22;618990;229;68837;-66
2022/03/12 03:27:52;;;;;;;;;;;;;;;26.54;60.97;98058.59;619028;229;65439;-66
2022/03/12 03:30:20;;;;;;;;;;;;;;;26.54;60.61;98075.56;619029;229;66135;-66
2022/03/12 03:32:47;;;;;;;;;;;;;;;26.54;59.81;98069.38;619023;229;66553;-67
2022/03/12 03:35:15;;;;;;;;;;;;;;;26.51;60.82;98075.34;619051;229;63218;-66
2022/03/12 03:37:42;;;;;;;;;;;;;;;26.50;60.45;98076.41;615712;230;68903;-66
2022/03/12 03:40:11;;;;;;;;;;;;;;;26.50;61.06;98082.59;615771;230;66581;-66
2022/03/12 03:42:39;;;;;;;;;;;;;;;26.49;60.78;98077.47;619005;229;65536;-66
2022/03/12 03:45:06;;;;;;;;;;;;;;;26.48;59.76;98075.88;619020;229;68462;-67
2022/03/12 03:47:34;;;;;;;;;;;;;;;26.46;61.31;98078.03;615803;230;68674;-67
2022/03/12 03:50:01;;;;;;;;;;;;;;;26.44;60.79;98080.23;615713;230;65325;-67
2022/03/12 03:52:29;;;;;;;;;;;;;;;26.42;62.34;98083.20;615756;230;68978;-68
2022/03/12 03:54:57;;;;;;;;;;;;;;;26.42;61.99;98085.89;615732;230;69251;-68
2022/03/12 03:57:25;;;;;;;;;;;;;;;26.40;60.31;98093.44;617317;229;63227;-68
2022/03/12 03:59:53;;;;;;;;;;;;;;;26.39;60.61;98091.84;615684;230;68712;-67
2022/03/12 04:02:20;;;;;;;;;;;;;;;26.38;61.38;98101.00;615620;230;68513;-67
2022/03/12 04:04:49;;;;;;;;;;;;;;;26.37;62.20;98094.01;615619;230;65286;-67
2022/03/12 04:07:16;;;;;;;;;;;;;;;26.37;61.20;98099.40;615644;230;66200;-67
2022/03/12 04:09:44;;;;;;;;;;;;;;;26.35;61.33;98104.25;615658;230;66025;-67
2022/03/12 04:12:11;;;;;;;;;;;;;;;26.33;59.00;98090.28;615632;230;63175;-67
2022/03/12 04:14:39;;;;;;;;;;;;;;;26.32;60.67;98097.53;615677;230;66269;-67
2022/03/12 04:17:06;;;;;;;;;;;;;;;26.31;61.18;98095.13;615656;230;66353;-67
2022/03/12 04:19:34;;;;;;;;;;;;;;;26.31;60.61;98101.32;615650;230;63467;-67
2022/03/12 04:22:06;;;;;;;;;;;;;;;26.30;59.70;98112.37;615632;230;68336;-68
2022/03/12 04:24:34;;;;;;;;;;;;;;;26.29;60.48;98105.38;615648;230;68503;-68
2022/03/12 04:27:02;;;;;;;;;;;;;;;26.27;60.01;98107.54;615702;230;63218;-68
2022/03/12 04:29:30;;;;;;;;;;;;;;;26.25;59.80;98113.23;615606;230;68632;-68
2022/03/12 04:31:57;;;;;;;;;;;;;;;26.25;60.89;98115.92;615613;230;68511;-68
2022/03/12 04:34:25;;;;;;;;;;;;;;;26.25;62.60;98118.61;615647;230;65297;-68
2022/03/12 04:36:53;;;;;;;;;;;;;;;26.23;61.52;98114.59;615594;230;66415;-68
2022/03/12 04:39:21;;;;;;;;;;;;;;;26.22;61.46;98121.04;615645;230;69955;-68
2022/03/12 04:41:48;;;;;;;;;;;;;;;26.20;61.44;98129.42;615606;230;65217;-68
2022/03/12 04:44:16;;;;;;;;;;;;;;;26.19;60.69;98135.90;615604;230;68454;-68
2022/03/12 04:46:43;;;;;;;;;;;;;;;26.18;61.22;98138.86;615603;230;68697;-68
2022/03/12 04:49:11;;;;;;;;;;;;;;;26.17;61.65;98129.98;615631;230;65123;-68
2022/03/12 04:51:38;;;;;;;;;;;;;;;26.17;61.49;98129.18;615665;230;68571;-68
2022/03/12 04:54:06;;;;;;;;;;;;;;;26.17;62.30;98137.26;615651;230;68632;-68
2022/03/12 04:56:34;;;;;;;;;;;;;;;26.14;59.81;98133.23;615341;230;63382;-68
2022/03/12 04:59:01;;;;;;;;;;;;;;;26.13;61.99;98143.17;614889;230;68539;-68
2022/03/12 05:01:29;;;;;;;;;;;;;;;26.10;59.81;98146.43;614860;230;68674;-68
2022/03/12 05:03:58;;;;;;;;;;;;;;;26.12;62.18;98151.55;614868;230;65306;-68
2022/03/12 05:06:31;;;;;;;;;;;;;;;26.10;62.42;98151.02;614758;230;69134;-68
2022/03/12 05:08:58;;;;;;;;;;;;;;;26.09;62.14;98149.42;614877;230;68667;-68
2022/03/12 05:11:25;;;;;;;;;;;;;;;26.08;61.09;98158.56;614862;230;65300;-68
2022/03/12 05:13:53;;;;;;;;;;;;;;;26.06;62.11;98158.05;614874;230;68799;-68
2022/03/12 05:16:22;;;;;;;;;;;;;;;26.06;62.23;98163.45;614831;230;68563;-69
2022/03/12 05:18:49;;;;;;;;;;;;;;;26.05;61.41;98161.81;614887;230;63331;-69
2022/03/12 05:21:17;;;;;;;;;;;;;;;26.05;61.96;98161.81;614885;230;68769;-69
2022/03/12 05:23:44;;;;;;;;;;;;;;;26.03;61.99;98167.49;614892;230;68488;-69
2022/03/12 05:26:13;;;;;;;;;;;;;;;26.02;61.52;98170.45;614846;230;65310;-69
2022/03/12 05:28:41;;;;;;;;;;;;;;;26.01;61.47;98174.23;614842;230;68905;-69
2022/03/12 05:31:10;;;;;;;;;;;;;;;25.99;61.34;98169.11;614946;230;66574;-69
2022/03/12 05:33:37;;;;;;;;;;;;;;;25.98;60.29;98180.98;614910;230;65401;-69
2022/03/12 05:36:07;;;;;;;;;;;;;;;25.98;61.31;98182.88;611527;232;49704;-68
2022/03/12 05:38:38;;;;;;;;;;;;;;;25.98;61.61;98189.06;611633;229;66568;-69
2022/03/12 05:41:11;;;;;;;;;;;;;;;25.97;62.16;98192.81;610278;232;65335;-69
2022/03/12 05:43:43;;;;;;;;;;;;;;;25.96;61.97;98196.60;611474;232;68671;-68
2022/03/12 05:46:06;;;;;;;;;;;;;;;25.95;61.83;98196.89;611251;232;68442;-68
2022/03/12 05:48:33;;;;;;;;;;;;;;;25.91;60.67;98200.11;611581;232;65284;-68
2022/03/12 05:51:01;;;;;;;;;;;;;;;25.90;61.36;98197.70;618481;229;68992;-68
2022/03/12 05:53:30;;;;;;;;;;;;;;;25.91;61.14;98207.39;618615;229;68939;-68
2022/03/12 05:55:58;;;;;;;;;;;;;;;25.90;61.85;98209.28;618542;229;63346;-67
2022/03/12 05:58:26;;;;;;;;;;;;;;;25.88;61.77;98216.82;618136;229;68610;-69
2022/03/12 06:00:55;;;;;;;;;;;;;;;25.88;62.05;98222.20;618054;229;68476;-68
2022/03/12 06:03:24;;;;;;;;;;;;;;;25.85;60.31;98220.06;618021;229;65230;-68
2022/03/12 06:05:58;;;;;;;;;;;;;;;25.87;61.98;98223.30;618055;229;68775;-68
2022/03/12 06:08:24;;;;;;;;;;;;;;;25.85;61.63;98228.14;617752;229;68661;-68
2022/03/12 06:10:55;;;;;;;;;;;;;;;25.85;60.98;98227.34;618088;229;65273;-69
2022/03/12 06:13:27;;;;;;;;;;;;;;;25.83;61.40;98224.91;618052;229;68786;-67
2022/03/12 06:16:03;;;;;;;;;;;;;;;25.82;61.97;98233.25;618046;229;68763;-69
2022/03/12 06:18:32;;;;;;;;;;;;;;;25.81;62.35;98237.00;616480;229;65380;-68
2022/03/12 06:21:01;;;;;;;;;;;;;;;25.79;61.37;98223.83;618021;229;66951;-69
2022/03/12 06:23:28;;;;;;;;;;;;;;;25.79;60.82;98234.59;617992;229;68455;-68
2022/03/12 06:25:58;;;;;;;;;;;;;;;25.78;61.64;98240.24;617832;229;65469;-68
2022/03/12 06:28:27;;;;;;;;;;;;;;;25.76;59.91;98235.14;610939;229;66580;-67
2022/03/12 06:30:55;;;;;;;;;;;;;;;25.76;60.75;98237.84;618005;229;68779;-66
2022/03/12 06:33:23;;;;;;;;;;;;;;;25.76;61.15;98237.03;618030;229;65404;-66
2022/03/12 06:35:52;;;;;;;;;;;;;;;25.74;61.02;98244.57;618074;229;68617;-66
2022/03/12 06:38:20;;;;;;;;;;;;;;;25.75;61.74;98254.25;618024;229;68648;-67
2022/03/12 06:40:49;;;;;;;;;;;;;;;25.74;61.86;98244.57;618081;229;65374;-68
2022/03/12 06:43:20;;;;;;;;;;;;;;;25.74;61.56;98250.76;617979;229;69073;-67
2022/03/12 06:45:50;;;;;;;;;;;;;;;25.73;61.02;98257.23;617851;229;66718;-68
2022/03/12 06:48:18;;;;;;;;;;;;;;;25.72;61.97;98255.60;618046;229;62949;-68
2022/03/12 06:50:46;;;;;;;;;;;;;;;25.75;62.20;98243.48;618067;229;68832;-68
2022/03/12 06:53:15;;;;;;;;;;;;;;;25.75;62.81;98249.67;617962;229;69470;-67
2022/03/12 06:55:43;;;;;;;;;;;;;;;25.74;62.54;98247.27;617997;229;65256;-70
2022/03/12 06:58:12;;;;;;;;;;;;;;;25.73;61.66;98246.47;611515;232;68880;-71
2022/03/12 07:00:39;;;;;;;;;;;;;;;25.75;61.83;98255.05;611547;232;68322;-65
2022/03/12 07:03:09;;;;;;;;;;;;;;;25.77;60.73;98252.10;611540;232;50730;-69
2022/03/12 07:05:37;;;;;;;;;;;;;;;25.78;61.14;98249.16;609536;232;66383;-67
2022/03/12 07:08:06;;;;;;;;;;;;;;;25.75;59.37;98254.25;606276;234;69033;-64
2022/03/12 07:10:33;;;;;;;;;;;;;;;25.74;60.67;98249.95;605544;234;66275;-64
2022/03/12 07:13:01;;;;;;;;;;;;;;;25.74;61.25;98248.06;605432;234;68853;-64
2022/03/12 07:15:29;;;;;;;;;;;;;;;25.76;60.53;98255.89;598407;234;68741;-67
2022/03/12 07:17:56;;;;;;;;;;;;;;;25.75;60.83;98249.67;605574;234;63186;-66
2022/03/12 07:20:26;;;;;;;;;;;;;;;25.75;59.69;98244.28;605535;234;49983;-65
2022/03/12 07:22:53;;;;;;;;;;;;;;;25.77;60.39;98241.33;605577;234;68660;-67
2022/03/12 07:25:21;;;;;;;;;;;;;;;25.79;60.50;98237.29;605554;234;66180;-64
2022/03/12 07:27:48;;;;;;;;;;;;;;;25.81;60.06;98237.83;605471;234;69304;-64
2022/03/12 07:30:18;;;;;;;;;;;;;;;25.83;59.40;98235.68;605427;234;47613;-65
2022/03/12 07:32:45;;;;;;;;;;;;;;;25.85;60.76;98236.22;605538;234;65342;-68
2022/03/12 07:35:13;;;;;;;;;;;;;;;25.87;60.32;98239.45;605548;234;66568;-65
2022/03/12 07:37:42;;;;;;;;;;;;;;;25.91;59.90;98243.20;605593;234;66620;-65
2022/03/12 07:40:10;;;;;;;;;;;;;;;25.96;59.79;98234.31;605513;234;64121;-66
2022/03/12 07:42:38;;;;;;;;;;;;;;;25.99;59.27;98239.14;605486;234;68838;-63
2022/03/12 07:45:10;;;;;;;;;;;;;;;26.02;57.98;98249.37;605525;234;66586;-68
2022/03/12 07:47:38;;;;;;;;;;;;;;;26.06;58.92;98238.87;605538;234;63277;-63
2022/03/12 07:50:06;;;;;;;;;;;;;;;26.07;58.77;98243.97;605511;234;68765;-64
2022/03/12 07:52:34;;;;;;;;;;;;;;;26.10;58.35;98242.61;605558;234;68829;-65
2022/03/12 07:55:05;;;;;;;;;;;;;;;26.13;59.14;98250.94;605567;234;46662;-64
2022/03/12 07:57:32;;;;;;;;;;;;;;;26.14;58.34;98249.08;609088;231;68747;-63
2022/03/12 08:00:00;;;;;;;;;;;;;;;26.16;57.42;98246.89;610429;232;68631;-66
2022/03/12 08:02:27;;;;;;;;;;;;;;;26.19;57.42;98250.92;610276;232;65411;-66
2022/03/12 08:04:55;;;;;;;;;;;;;;;26.20;57.75;98244.48;610368;232;68611;-65
2022/03/12 08:07:24;;;;;;;;;;;;;;;26.22;58.62;98248.52;610368;232;68626;-63
2022/03/12 08:09:56;;;;;;;;;;;;;;;26.23;57.06;98247.41;610394;232;65765;-64
2022/03/12 08:12:21;;;;;;;;;;;;;;;26.26;56.48;98252.25;603499;234;68817;-63
2022/03/12 08:14:48;;;;;;;;;;;;;;;26.28;56.91;98251.99;610331;232;65769;-66
2022/03/12 08:17:18;;;;;;;;;;;;;;;26.29;56.89;98254.39;610398;232;63258;-67
2022/03/12 08:19:45;;;;;;;;;;;;;;;26.31;57.23;98254.93;610385;232;66438;-66
2022/03/12 08:22:13;;;;;;;;;;;;;;;26.32;56.81;98261.92;610366;232;68863;-65
2022/03/12 08:24:40;;;;;;;;;;;;;;;26.34;55.69;98259.77;610308;232;65259;-65
2022/03/12 08:27:08;;;;;;;;;;;;;;;26.35;56.74;98258.70;610392;232;68483;-64
2022/03/12 08:29:36;;;;;;;;;;;;;;;26.37;56.17;98258.41;610406;232;66336;-66
2022/03/12 08:32:07;;;;;;;;;;;;;;;26.38;55.89;98262.70;610403;232;63256;-65
2022/03/12 08:34:34;;;;;;;;;;;;;;;26.41;55.88;98258.66;603602;235;66418;-66
2022/03/12 08:37:02;;;;;;;;;;;;;;;26.43;55.84;98256.49;610377;232;68657;-65
2022/03/12 08:39:34;;;;;;;;;;;;;;;26.43;56.42;98254.59;610431;232;65451;-65
2022/03/12 08:42:01;;;;;;;;;;;;;;;26.44;55.53;98261.63;610369;232;68690;-64
2022/03/12 08:44:29;;;;;;;;;;;;;;;26.44;56.06;98261.63;610341;232;68413;-64
2022/03/12 08:46:56;;;;;;;;;;;;;;;26.45;55.30;98252.44;608783;232;63924;-65
2022/03/12 08:49:24;;;;;;;;;;;;;;;26.46;55.49;98259.44;603257;235;69338;-64
2022/03/12 08:51:52;;;;;;;;;;;;;;;26.49;55.75;98260.77;610338;232;68821;-66
2022/03/12 08:54:20;;;;;;;;;;;;;;;26.48;55.57;98259.17;610319;232;64040;-65
2022/03/12 08:56:47;;;;;;;;;;;;;;;26.49;55.50;98260.77;610351;231;66438;-65
2022/03/12 08:59:15;;;;;;;;;;;;;;;26.52;54.21;98252.19;610333;232;66927;-66
2022/03/12 09:01:44;;;;;;;;;;;;;;;26.55;54.21;98246.23;610449;232;63278;-67
2022/03/12 09:04:12;;;;;;;;;;;;;;;26.56;54.72;98245.14;610342;232;68898;-66
2022/03/12 09:06:40;;;;;;;;;;;;;;;26.57;54.94;98254.83;610318;232;69087;-65
2022/03/12 09:09:07;;;;;;;;;;;;;;;26.59;53.04;98247.28;610373;232;65364;-65
2022/03/12 09:11:35;;;;;;;;;;;;;;;26.60;53.53;98251.61;610419;232;68751;-65
2022/03/12 09:14:02;;;;;;;;;;;;;;;26.62;53.69;98252.11;610400;232;68664;-63
2022/03/12 09:16:30;;;;;;;;;;;;;;;26.63;54.85;98259.13;610380;232;65328;-63
2022/03/12 09:18:57;;;;;;;;;;;;;;;26.62;55.22;98254.01;614266;230;69528;-66
2022/03/12 09:21:27;;;;;;;;;;;;;;;26.61;54.93;98255.91;622212;228;68750;-66
2022/03/12 09:23:54;;;;;;;;;;;;;;;26.61;54.54;98250.52;622271;228;65472;-64
2022/03/12 09:26:22;;;;;;;;;;;;;;;26.61;54.45;98255.10;622266;228;69034;-65
2022/03/12 09:28:49;;;;;;;;;;;;;;;26.62;53.57;98251.31;616569;228;68358;-66
2022/03/12 09:31:17;;;;;;;;;;;;;;;26.62;52.45;98249.41;622326;228;63048;-68
2022/03/12 09:33:44;;;;;;;;;;;;;;;26.63;53.04;98253.74;616596;228;66579;-71
2022/03/12 09:36:12;;;;;;;;;;;;;;;26.66;51.65;98249.69;622188;228;66753;-65
2022/03/12 09:38:39;;;;;;;;;;;;;;;26.67;54.73;98248.59;618048;228;63253;-67
2022/03/12 09:41:07;;;;;;;;;;;;;;;26.64;54.25;98244.55;620583;228;68583;-65
2022/03/12 09:43:35;;;;;;;;;;;;;;;26.63;54.48;98253.74;622211;228;68730;-66
2022/03/12 09:46:03;;;;;;;;;;;;;;;26.62;52.98;98257.50;620265;228;65132;-65
2022/03/12 09:48:31;;;;;;;;;;;;;;;26.63;54.22;98251.05;619637;228;66505;-63
2022/03/12 09:50:59;;;;;;;;;;;;;;;26.62;53.51;98244.02;618953;229;68562;-65
2022/03/12 09:53:26;;;;;;;;;;;;;;;26.63;53.05;98247.52;619036;229;65323;-66
2022/03/12 09:55:54;;;;;;;;;;;;;;;26.64;53.04;98252.65;618906;228;68351;-65
2022/03/12 09:58:21;;;;;;;;;;;;;;;26.64;52.72;98243.76;618979;229;68631;-66
2022/03/12 10:00:49;;;;;;;;;;;;;;;26.64;51.70;98249.95;618929;229;65379;-64
2022/03/12 10:03:16;;;;;;;;;;;;;;;26.61;52.91;98250.52;618983;229;70460;-67
2022/03/12 10:05:44;;;;;;;;;;;;;;;26.64;53.64;98243.76;619077;229;68419;-67
2022/03/12 10:08:11;;;;;;;;;;;;;;;26.65;52.41;98248.86;619017;229;63281;-67
2022/03/12 10:10:39;;;;;;;;;;;;;;;26.66;52.09;98245.09;618994;229;67585;-67
2022/03/12 10:13:06;;;;;;;;;;;;;;;26.66;52.37;98247.79;619053;229;68609;-66
2022/03/12 10:15:34;;;;;;;;;;;;;;;26.66;52.89;98253.19;619003;229;65341;-66
2022/03/12 10:18:02;;;;;;;;;;;;;;;26.67;53.03;98257.48;619083;229;66606;-66
2022/03/12 10:20:30;;;;;;;;;;;;;;;26.67;53.18;98257.48;619009;229;68557;-66
2022/03/12 10:22:58;;;;;;;;;;;;;;;26.67;52.86;98265.57;619012;229;65282;-66
2022/03/12 10:25:25;;;;;;;;;;;;;;;26.68;53.11;98252.89;618994;229;68851;-66
2022/03/12 10:27:53;;;;;;;;;;;;;;;26.67;53.23;98260.17;619020;229;68627;-67
2022/03/12 10:30:20;;;;;;;;;;;;;;;26.69;52.76;98259.91;619008;229;64106;-67
2022/03/12 10:32:49;;;;;;;;;;;;;;;26.68;53.64;98251.02;619052;229;68711;-66
2022/03/12 10:35:19;;;;;;;;;;;;;;;26.68;53.13;98242.93;618984;229;68445;-66
2022/03/12 10:37:48;;;;;;;;;;;;;;;26.69;54.21;98235.64;619013;229;65491;-66
2022/03/12 10:40:23;;;;;;;;;;;;;;;26.69;52.44;98236.45;619052;229;66637;-66
2022/03/12 10:43:05;;;;;;;;;;;;;;;26.70;53.82;98231.84;619048;229;49566;-65
2022/03/12 10:45:30;;;;;;;;;;;;;;;26.69;53.14;98227.55;618915;229;63014;-66
2022/03/12 10:47:59;;;;;;;;;;;;;;;26.70;52.63;98232.66;619044;229;66696;-65
2022/03/12 10:50:28;;;;;;;;;;;;;;;26.70;52.71;98232.66;618970;229;66629;-65
2022/03/12 10:52:57;;;;;;;;;;;;;;;26.71;53.36;98231.58;618988;229;63262;-65
2022/03/12 10:55:33;;;;;;;;;;;;;;;26.72;53.36;98235.88;618971;229;66191;-65
2022/03/12 10:58:02;;;;;;;;;;;;;;;26.72;52.89;98235.88;620559;228;68461;-65
2022/03/12 11:00:32;;;;;;;;;;;;;;;26.72;53.46;98230.48;620774;228;65276;-65
2022/03/12 11:03:03;;;;;;;;;;;;;;;26.73;52.76;98233.98;620537;228;51669;-66
2022/03/12 11:05:35;;;;;;;;;;;;;;;26.73;52.86;98232.09;620695;228;66762;-66
2022/03/12 11:08:08;;;;;;;;;;;;;;;26.73;52.40;98231.29;620778;228;64799;-65
2022/03/12 11:10:37;;;;;;;;;;;;;;;26.73;53.46;98218.61;619392;228;66338;-66
2022/03/12 11:13:05;;;;;;;;;;;;;;;26.74;52.18;98216.73;620738;228;68812;-66
2022/03/12 11:15:33;;;;;;;;;;;;;;;26.74;52.63;98220.23;620761;228;65405;-66
2022/03/12 11:18:03;;;;;;;;;;;;;;;26.75;52.84;98211.05;620499;228;50648;-66
2022/03/12 11:20:32;;;;;;;;;;;;;;;26.75;53.16;98208.35;620720;228;66709;-66
2022/03/12 11:23:13;;;;;;;;;;;;;;;26.76;53.51;98209.98;620686;228;63234;-66
2022/03/12 11:26:05;;;;;;;;;;;;;;;26.77;52.22;98211.58;620726;228;68493;-66
2022/03/12 11:28:28;;;;;;;;;;;;;;;26.76;53.25;98203.76;620444;228;66564;-65
2022/03/12 11:30:56;;;;;;;;;;;;;;;26.76;53.66;98209.16;620769;228;63301;-65
2022/03/12 11:33:29;;;;;;;;;;;;;;;26.76;53.53;98204.59;620753;228;68609;-65
2022/03/12 11:36:00;;;;;;;;;;;;;;;26.77;53.08;98202.69;620344;228;68537;-66
2022/03/12 11:38:29;;;;;;;;;;;;;;;26.77;52.15;98191.91;620699;228;65870;-66
2022/03/12 11:41:05;;;;;;;;;;;;;;;26.77;53.02;98195.41;620701;228;68660;-67
2022/03/12 11:43:36;;;;;;;;;;;;;;;26.77;51.83;98198.09;620740;228;48446;-66
2022/03/12 11:46:06;;;;;;;;;;;;;;;26.78;52.25;98190.80;620745;228;66297;-66
2022/03/12 11:48:36;;;;;;;;;;;;;;;26.77;53.45;98190.01;620639;228;66325;-66
2022/03/12 11:51:04;;;;;;;;;;;;;;;26.78;52.23;98183.52;620623;228;68691;-66
2022/03/12 11:53:39;;;;;;;;;;;;;;;26.79;52.53;98177.05;620622;228;65675;-66
2022/03/12 11:56:07;;;;;;;;;;;;;;;26.79;52.00;98179.75;620397;228;66644;-66
2022/03/12 11:58:36;;;;;;;;;;;;;;;26.79;53.14;98177.05;618965;229;68402;-66
2022/03/12 12:01:05;;;;;;;;;;;;;;;26.79;52.38;98182.45;618923;229;65871;-66
2022/03/12 12:03:32;;;;;;;;;;;;;;;26.80;53.38;98183.25;618641;229;68569;-66
2022/03/12 12:06:02;;;;;;;;;;;;;;;26.79;51.78;98187.02;618762;229;45851;-67
2022/03/12 12:08:29;;;;;;;;;;;;;;;26.81;52.68;98194.84;612830;229;63020;-66
2022/03/12 12:11:01;;;;;;;;;;;;;;;26.82;53.26;98185.64;607198;229;68133;-66
2022/03/12 12:13:26;;;;;;;;;;;;;;;26.82;53.35;98197.27;618900;229;66120;-66
2022/03/12 12:15:58;;;;;;;;;;;;;;;26.82;52.83;98191.04;619072;229;42165;-66
2022/03/12 12:18:25;;;;;;;;;;;;;;;26.81;52.23;98192.94;618875;229;68823;-66
2022/03/12 12:20:52;;;;;;;;;;;;;;;26.83;52.69;98192.67;618968;229;66326;-66
2022/03/12 12:23:21;;;;;;;;;;;;;;;26.83;52.91;98195.37;619057;229;65578;-66
2022/03/12 12:25:50;;;;;;;;;;;;;;;26.83;53.08;98200.77;619063;229;68761;-66
2022/03/12 12:28:19;;;;;;;;;;;;;;;26.82;53.14;98201.83;619032;229;68378;-66
2022/03/12 12:30:49;;;;;;;;;;;;;;;26.83;52.74;98195.37;618940;229;65152;-66
2022/03/12 12:33:18;;;;;;;;;;;;;;;26.85;52.54;98203.99;618970;229;69037;-66
2022/03/12 12:35:47;;;;;;;;;;;;;;;26.83;52.76;98196.17;619010;229;68282;-66
2022/03/12 12:38:17;;;;;;;;;;;;;;;26.83;52.87;98196.17;619043;229;63117;-66
2022/03/12 12:40:47;;;;;;;;;;;;;;;26.83;52.61;98203.46;619061;229;67762;-66
2022/03/12 12:43:20;;;;;;;;;;;;;;;26.85;52.03;98202.09;619000;229;66492;-66
2022/03/12 12:45:56;;;;;;;;;;;;;;;26.84;51.81;98202.36;618781;229;65420;-67
2022/03/12 12:48:28;;;;;;;;;;;;;;;26.84;52.32;98200.47;619079;229;68731;-66
2022/03/12 12:51:05;;;;;;;;;;;;;;;26.84;52.10;98199.66;619063;229;68532;-66
2022/03/12 12:53:34;;;;;;;;;;;;;;;26.86;51.84;98203.70;619044;229;63073;-65
2022/03/12 12:56:03;;;;;;;;;;;;;;;26.87;53.61;98199.90;619005;228;69518;-65
2022/03/12 12:58:49;;;;;;;;;;;;;;;26.87;50.88;98205.30;614811;229;66679;-65